createdAt,value
2019-02-17T00:00:11.626Z,7.31
2019-02-17T00:02:40.082Z,7.31
2019-02-17T00:05:08.803Z,7.31
2019-02-17T00:07:37.186Z,7.33
2019-02-17T00:10:06.301Z,7.32
2019-02-17T00:12:34.758Z,7.34
2019-02-17T00:15:03.349Z,7.30
2019-02-17T00:17:31.922Z,7.28
2019-02-17T00:20:00.327Z,7.18
2019-02-17T00:22:28.765Z,7.15
2019-02-17T00:24:57.476Z,7.17
2019-02-17T00:27:25.879Z,7.16
2019-02-17T00:29:54.306Z,7.17
2019-02-17T00:32:22.803Z,7.07
2019-02-17T00:34:51.293Z,6.94
2019-02-17T00:37:19.966Z,6.69
2019-02-17T00:39:48.486Z,6.66
2019-02-17T00:42:16.870Z,6.63
2019-02-17T00:44:45.326Z,6.60
2019-02-17T00:47:13.786Z,6.53
2019-02-17T00:49:42.303Z,6.46
2019-02-17T00:52:10.667Z,6.40
2019-02-17T00:54:39.226Z,6.36
2019-02-17T00:57:07.659Z,6.35
2019-02-17T00:59:36.280Z,6.40
2019-02-17T01:02:04.807Z,6.45
2019-02-17T01:04:33.199Z,6.52
2019-02-17T01:07:01.650Z,6.58
2019-02-17T01:09:30.310Z,6.65
2019-02-17T01:11:59.151Z,6.66
2019-02-17T01:14:27.878Z,6.57
2019-02-17T01:16:56.552Z,6.53
2019-02-17T01:19:25.104Z,6.44
2019-02-17T01:21:53.508Z,6.44
2019-02-17T01:24:21.874Z,6.36
2019-02-17T01:26:50.376Z,6.22
2019-02-17T01:29:20.785Z,6.16
2019-02-17T01:31:48.924Z,6.20
2019-02-17T01:34:17.368Z,6.26
2019-02-17T01:36:45.770Z,6.23
2019-02-17T01:39:14.223Z,6.19
2019-02-17T01:41:42.619Z,6.10
2019-02-17T01:44:11.066Z,6.12
2019-02-17T01:46:39.840Z,6.15
2019-02-17T01:49:08.244Z,6.19
2019-02-17T01:51:36.653Z,6.21
2019-02-17T01:54:05.445Z,6.21
2019-02-17T01:56:33.855Z,6.21
2019-02-17T01:59:02.560Z,6.23
2019-02-17T02:01:31.013Z,6.14
2019-02-17T02:03:59.473Z,6.05
2019-02-17T02:06:27.945Z,5.98
2019-02-17T02:08:56.411Z,5.98
2019-02-17T02:11:25.114Z,5.91
2019-02-17T02:13:53.593Z,5.85
2019-02-17T02:16:21.975Z,5.81
2019-02-17T02:18:50.714Z,5.84
2019-02-17T02:21:19.128Z,5.88
2019-02-17T02:23:47.580Z,5.93
2019-02-17T02:26:16.048Z,5.94
2019-02-17T02:28:44.484Z,5.99
2019-02-17T02:31:12.954Z,6.00
2019-02-17T02:33:41.338Z,5.99
2019-02-17T02:36:09.692Z,5.99
2019-02-17T02:38:38.118Z,5.96
2019-02-17T02:41:06.855Z,5.96
2019-02-17T02:43:35.300Z,5.94
2019-02-17T02:46:03.770Z,5.94
2019-02-17T02:48:32.305Z,5.89
2019-02-17T02:51:00.743Z,5.90
2019-02-17T02:53:29.190Z,5.86
2019-02-17T02:55:57.638Z,5.85
2019-02-17T02:58:26.083Z,5.80
2019-02-17T03:00:54.646Z,5.79
2019-02-17T03:03:23.018Z,5.79
2019-02-17T03:05:53.085Z,5.80
2019-02-17T03:08:21.441Z,5.65
2019-02-17T03:10:50.038Z,5.69
2019-02-17T03:13:18.566Z,5.68
2019-02-17T03:15:46.943Z,5.71
2019-02-17T03:18:15.364Z,5.71
2019-02-17T03:20:44.102Z,5.72
2019-02-17T03:23:12.453Z,5.70
2019-02-17T03:25:40.926Z,5.69
2019-02-17T03:28:09.364Z,5.67
2019-02-17T03:30:37.848Z,5.65
2019-02-17T03:33:07.616Z,5.67
2019-02-17T03:35:35.975Z,5.66
2019-02-17T03:38:04.703Z,5.66
2019-02-17T03:40:33.231Z,5.66
2019-02-17T03:43:01.935Z,5.66
2019-02-17T03:45:30.339Z,5.63
2019-02-17T03:47:58.778Z,5.62
2019-02-17T03:50:27.145Z,5.59
2019-02-17T03:52:55.573Z,5.56
2019-02-17T03:55:23.932Z,5.55
2019-02-17T03:57:52.402Z,5.54
2019-02-17T04:00:21.172Z,5.56
2019-02-17T04:02:49.831Z,5.54
2019-02-17T04:05:18.317Z,5.51
2019-02-17T04:07:46.697Z,5.46
2019-02-17T04:10:15.169Z,5.44
2019-02-17T04:12:43.619Z,5.48
2019-02-17T04:15:12.154Z,5.50
2019-02-17T04:17:40.620Z,5.51
2019-02-17T04:20:09.163Z,5.49
2019-02-17T04:22:37.671Z,5.45
2019-02-17T04:25:06.543Z,5.44
2019-02-17T04:27:35.042Z,5.49
2019-02-17T04:30:03.858Z,5.46
2019-02-17T04:32:32.244Z,5.46
2019-02-17T04:35:00.744Z,5.42
2019-02-17T04:37:29.125Z,5.40
2019-02-17T04:39:57.533Z,5.38
2019-02-17T04:42:25.971Z,5.37
2019-02-17T04:44:54.350Z,5.29
2019-02-17T04:47:22.804Z,5.29
2019-02-17T04:49:51.256Z,5.27
2019-02-17T04:52:19.732Z,5.25
2019-02-17T04:54:48.420Z,5.25
2019-02-17T04:57:16.839Z,5.26
2019-02-17T04:59:45.295Z,5.26
2019-02-17T05:02:13.773Z,5.25
2019-02-17T05:04:42.149Z,5.23
2019-02-17T05:07:10.591Z,5.19
2019-02-17T05:09:39.057Z,5.15
2019-02-17T05:12:07.511Z,5.16
2019-02-17T05:14:35.973Z,5.17
2019-02-17T05:17:04.765Z,5.15
2019-02-17T05:19:33.169Z,5.18
2019-02-17T05:22:01.540Z,5.15
2019-02-17T05:24:29.945Z,5.14
2019-02-17T05:26:58.388Z,5.14
2019-02-17T05:29:27.132Z,5.14
2019-02-17T05:31:55.524Z,5.14
2019-02-17T05:34:23.883Z,5.13
2019-02-17T05:36:52.639Z,5.14
2019-02-17T05:39:21.019Z,5.14
2019-02-17T05:41:49.664Z,5.12
2019-02-17T05:44:18.050Z,5.10
2019-02-17T05:46:46.504Z,5.06
2019-02-17T05:49:14.948Z,5.08
2019-02-17T05:51:43.338Z,5.09
2019-02-17T05:54:11.709Z,5.07
2019-02-17T05:56:40.132Z,5.07
2019-02-17T05:59:08.513Z,5.05
2019-02-17T06:01:37.184Z,5.01
2019-02-17T06:04:05.642Z,5.00
2019-02-17T06:06:34.005Z,4.97
2019-02-17T06:09:02.391Z,4.99
2019-02-17T06:11:30.797Z,5.00
2019-02-17T06:13:59.344Z,4.99
2019-02-17T06:16:27.798Z,5.00
2019-02-17T06:18:56.176Z,4.99
2019-02-17T06:21:24.633Z,4.99
2019-02-17T06:23:53.380Z,5.01
2019-02-17T06:26:21.776Z,5.01
2019-02-17T06:28:50.386Z,4.99
2019-02-17T06:31:18.803Z,4.92
2019-02-17T06:33:47.173Z,4.79
2019-02-17T06:36:15.557Z,4.62
2019-02-17T06:38:43.972Z,4.53
2019-02-17T06:41:12.327Z,4.61
2019-02-17T06:43:40.730Z,4.70
2019-02-17T06:46:10.754Z,4.68
2019-02-17T06:48:39.142Z,4.59
2019-02-17T06:51:07.529Z,4.67
2019-02-17T06:53:36.163Z,4.76
2019-02-17T06:56:06.175Z,4.83
2019-02-17T06:58:34.665Z,4.83
2019-02-17T07:01:03.365Z,4.86
2019-02-17T07:03:31.829Z,4.92
2019-02-17T07:06:13.682Z,5.03
2019-02-17T07:08:42.056Z,5.02
2019-02-17T07:11:10.756Z,4.89
2019-02-17T07:13:39.279Z,4.65
2019-02-17T07:16:07.915Z,4.64
2019-02-17T07:18:36.372Z,4.61
2019-02-17T07:21:04.815Z,4.62
2019-02-17T07:23:33.344Z,4.69
2019-02-17T07:26:01.729Z,4.78
2019-02-17T07:28:30.227Z,4.86
2019-02-17T07:30:58.886Z,4.75
2019-02-17T07:33:27.308Z,4.59
2019-02-17T07:35:56.066Z,4.53
2019-02-17T07:38:24.452Z,4.59
2019-02-17T07:40:52.960Z,4.67
2019-02-17T07:43:21.450Z,4.78
2019-02-17T07:45:49.897Z,4.84
2019-02-17T07:48:18.293Z,4.96
2019-02-17T07:50:46.836Z,4.99
2019-02-17T07:53:15.225Z,4.91
2019-02-17T07:55:43.607Z,4.84
2019-02-17T07:58:12.025Z,4.85
2019-02-17T08:00:40.519Z,4.90
2019-02-17T08:03:08.956Z,5.08
2019-02-17T08:05:37.789Z,5.28
2019-02-17T08:08:06.319Z,5.48
2019-02-17T08:10:35.306Z,5.64
2019-02-17T08:13:03.711Z,5.78
2019-02-17T08:15:32.106Z,5.86
2019-02-17T08:18:00.565Z,6.01
2019-02-17T08:20:28.958Z,6.07
2019-02-17T08:22:57.348Z,6.00
2019-02-17T08:25:25.794Z,6.10
2019-02-17T08:27:54.411Z,6.02
2019-02-17T08:30:23.124Z,6.05
2019-02-17T08:32:51.626Z,6.24
2019-02-17T08:35:20.034Z,6.32
2019-02-17T08:37:48.527Z,6.43
2019-02-17T08:40:17.020Z,6.55
2019-02-17T08:42:45.467Z,6.71
2019-02-17T08:45:13.927Z,6.86
2019-02-17T08:47:42.300Z,6.97
2019-02-17T08:50:11.773Z,6.96
2019-02-17T08:52:40.492Z,7.12
2019-02-17T08:55:10.566Z,7.23
2019-02-17T08:57:38.968Z,7.28
2019-02-17T09:00:12.642Z,7.35
2019-02-17T09:02:41.059Z,7.46
2019-02-17T09:05:09.557Z,7.57
2019-02-17T09:07:38.237Z,7.70
2019-02-17T09:10:09.632Z,7.85
2019-02-17T09:12:38.082Z,7.92
2019-02-17T09:15:09.375Z,7.98
2019-02-17T09:17:38.078Z,8.01
2019-02-17T09:20:08.203Z,8.02
2019-02-17T09:22:36.651Z,8.05
2019-02-17T09:25:07.632Z,8.17
2019-02-17T09:27:36.252Z,8.28
2019-02-17T09:30:07.294Z,8.36
2019-02-17T09:32:35.686Z,8.41
2019-02-17T09:35:04.607Z,8.51
2019-02-17T09:37:33.112Z,8.56
2019-02-17T09:40:01.492Z,8.53
2019-02-17T09:42:29.972Z,8.22
2019-02-17T09:44:58.422Z,8.27
2019-02-17T09:47:27.168Z,8.29
2019-02-17T09:49:55.819Z,8.44
2019-02-17T09:52:24.545Z,8.50
2019-02-17T09:54:53.047Z,8.54
2019-02-17T09:57:21.590Z,8.55
2019-02-17T09:59:50.214Z,8.69
2019-02-17T10:02:26.205Z,8.80
2019-02-17T10:04:48.789Z,8.81
2019-02-17T10:07:17.194Z,8.88
2019-02-17T10:09:45.657Z,8.94
2019-02-17T10:12:14.133Z,9.06
2019-02-17T10:14:42.507Z,9.07
2019-02-17T10:17:10.888Z,9.08
2019-02-17T10:19:39.416Z,9.17
2019-02-17T10:22:07.875Z,9.29
2019-02-17T10:24:36.329Z,9.30
2019-02-17T10:27:05.059Z,9.39
2019-02-17T10:29:33.440Z,9.52
2019-02-17T10:32:02.181Z,9.60
2019-02-17T10:34:30.737Z,9.80
2019-02-17T10:36:59.178Z,9.81
2019-02-17T10:39:27.812Z,9.86
2019-02-17T10:41:56.247Z,9.79
2019-02-17T10:44:24.678Z,9.76
2019-02-17T10:46:53.214Z,9.85
2019-02-17T10:49:21.656Z,9.97
2019-02-17T10:51:50.066Z,10.08
2019-02-17T10:54:18.495Z,10.19
2019-02-17T10:56:47.229Z,10.37
2019-02-17T10:59:15.614Z,10.45
2019-02-17T11:01:44.354Z,10.37
2019-02-17T11:04:12.806Z,10.37
2019-02-17T11:06:41.277Z,10.53
2019-02-17T11:09:20.068Z,10.65
2019-02-17T11:11:48.644Z,10.73
2019-02-17T11:14:17.161Z,10.88
2019-02-17T11:16:45.642Z,10.88
2019-02-17T11:19:14.103Z,10.85
2019-02-17T11:21:42.604Z,10.83
2019-02-17T11:24:11.134Z,10.98
2019-02-17T11:26:39.525Z,11.13
2019-02-17T11:29:08.058Z,11.13
2019-02-17T11:31:36.600Z,11.14
2019-02-17T11:34:05.476Z,11.12
2019-02-17T11:36:33.935Z,11.04
2019-02-17T11:39:02.399Z,11.03
2019-02-17T11:41:30.832Z,11.07
2019-02-17T11:43:59.682Z,11.16
2019-02-17T11:46:28.241Z,11.23
2019-02-17T11:48:56.622Z,11.32
2019-02-17T11:51:25.045Z,11.32
2019-02-17T11:53:53.498Z,11.31
2019-02-17T11:56:21.902Z,11.39
2019-02-17T11:58:50.358Z,11.51
2019-02-17T12:01:18.748Z,11.63
2019-02-17T12:03:47.199Z,11.70
2019-02-17T12:06:15.941Z,11.79
2019-02-17T12:08:48.459Z,11.79
2019-02-17T12:11:17.095Z,11.79
2019-02-17T12:13:45.603Z,11.82
2019-02-17T12:16:13.982Z,11.98
2019-02-17T12:18:42.402Z,12.01
2019-02-17T12:21:27.324Z,12.06
2019-02-17T12:24:11.107Z,12.16
2019-02-17T12:26:44.233Z,12.22
2019-02-17T12:29:29.021Z,12.21
2019-02-17T12:31:57.918Z,12.29
2019-02-17T12:34:26.339Z,12.31
2019-02-17T12:36:54.866Z,12.34
2019-02-17T12:39:23.269Z,12.41
2019-02-17T12:41:51.630Z,12.37
2019-02-17T12:44:20.043Z,12.37
2019-02-17T12:46:48.498Z,12.47
2019-02-17T12:49:16.907Z,12.52
2019-02-17T12:51:45.631Z,12.53
2019-02-17T12:54:14.101Z,12.55
2019-02-17T12:56:42.534Z,12.54
2019-02-17T12:59:10.918Z,12.56
2019-02-17T13:01:39.308Z,12.60
2019-02-17T13:04:07.763Z,12.58
2019-02-17T13:06:36.241Z,12.64
2019-02-17T13:09:06.303Z,12.73
2019-02-17T13:11:34.823Z,12.87
2019-02-17T13:14:03.267Z,12.85
2019-02-17T13:16:31.686Z,12.87
2019-02-17T13:19:00.140Z,12.89
2019-02-17T13:21:28.856Z,12.98
2019-02-17T13:23:57.309Z,13.06
2019-02-17T13:26:25.795Z,13.06
2019-02-17T13:28:54.684Z,13.08
2019-02-17T13:31:23.214Z,13.11
2019-02-17T13:33:51.675Z,13.15
2019-02-17T13:36:20.359Z,13.15
2019-02-17T13:38:48.761Z,13.19
2019-02-17T13:41:17.276Z,13.36
2019-02-17T13:43:46.054Z,13.37
2019-02-17T13:46:14.685Z,13.31
2019-02-17T13:48:43.151Z,13.24
2019-02-17T13:51:11.805Z,13.18
2019-02-17T13:53:40.195Z,13.29
2019-02-17T13:56:08.735Z,13.24
2019-02-17T13:58:37.119Z,13.26
2019-02-17T14:01:05.648Z,13.18
2019-02-17T14:03:34.104Z,13.13
2019-02-17T14:06:03.997Z,13.17
2019-02-17T14:08:32.429Z,13.17
2019-02-17T14:11:01.194Z,13.07
2019-02-17T14:13:29.587Z,13.05
2019-02-17T14:15:57.974Z,13.06
2019-02-17T14:18:26.658Z,12.99
2019-02-17T14:20:55.114Z,12.93
2019-02-17T14:23:23.532Z,12.93
2019-02-17T14:25:51.909Z,12.96
2019-02-17T14:28:20.297Z,12.95
2019-02-17T14:30:48.761Z,12.94
2019-02-17T14:33:17.297Z,12.88
2019-02-17T14:35:45.725Z,12.82
2019-02-17T14:38:14.356Z,12.81
2019-02-17T14:40:42.743Z,12.82
2019-02-17T14:43:11.261Z,13.02
2019-02-17T14:45:39.872Z,13.81
2019-02-17T14:48:08.580Z,14.32
2019-02-17T14:50:37.006Z,14.25
2019-02-17T14:53:05.474Z,13.96
2019-02-17T14:55:34.055Z,13.71
2019-02-17T14:58:05.311Z,13.45
2019-02-17T15:00:32.616Z,13.23
2019-02-17T15:03:01.054Z,13.04
2019-02-17T15:05:29.515Z,12.94
2019-02-17T15:07:58.001Z,12.78
2019-02-17T15:10:26.459Z,12.72
2019-02-17T15:12:54.874Z,12.60
2019-02-17T15:15:23.293Z,12.51
2019-02-17T15:17:52.000Z,12.47
2019-02-17T15:20:24.953Z,12.37
2019-02-17T15:22:53.419Z,12.26
2019-02-17T15:25:21.782Z,12.20
2019-02-17T15:27:50.188Z,12.19
2019-02-17T15:30:18.623Z,12.14
2019-02-17T15:32:47.113Z,12.09
2019-02-17T15:35:15.570Z,12.01
2019-02-17T15:37:44.039Z,11.91
2019-02-17T15:40:13.569Z,11.89
2019-02-17T15:42:43.282Z,11.89
2019-02-17T15:45:12.815Z,11.83
2019-02-17T15:47:41.285Z,11.80
2019-02-17T15:50:13.788Z,11.78
2019-02-17T15:52:42.312Z,11.69
2019-02-17T15:55:13.130Z,11.61
2019-02-17T15:57:41.659Z,11.55
2019-02-17T16:00:18.227Z,11.55
2019-02-17T16:02:46.921Z,11.56
2019-02-17T16:05:15.459Z,11.50
2019-02-17T16:07:44.191Z,11.48
2019-02-17T16:10:13.790Z,11.45
2019-02-17T16:12:42.278Z,11.37
2019-02-17T16:15:14.111Z,11.28
2019-02-17T16:17:42.653Z,11.19
2019-02-17T16:20:12.986Z,11.13
2019-02-17T16:22:41.463Z,11.09
2019-02-17T16:25:10.944Z,11.02
2019-02-17T16:27:39.472Z,11.00
2019-02-17T16:30:13.070Z,10.98
2019-02-17T16:32:41.727Z,10.97
2019-02-17T16:35:10.200Z,10.90
2019-02-17T16:37:38.629Z,10.82
2019-02-17T16:40:16.058Z,10.77
2019-02-17T16:42:44.498Z,10.72
2019-02-17T16:45:15.011Z,10.66
2019-02-17T16:47:46.499Z,10.61
2019-02-17T16:50:18.054Z,10.57
2019-02-17T16:52:46.545Z,10.51
2019-02-17T16:55:15.026Z,10.47
2019-02-17T16:57:43.861Z,10.43
2019-02-17T17:00:23.938Z,10.41
2019-02-17T17:02:56.220Z,10.39
2019-02-17T17:05:27.102Z,10.38
2019-02-17T17:07:55.578Z,10.34
2019-02-17T17:10:24.792Z,10.31
2019-02-17T17:12:53.270Z,10.27
2019-02-17T17:15:21.843Z,10.23
2019-02-17T17:17:50.319Z,10.24
2019-02-17T17:20:21.009Z,10.24
2019-02-17T17:22:50.259Z,10.23
2019-02-17T17:25:18.825Z,10.23
2019-02-17T17:27:47.452Z,10.20
2019-02-17T17:30:17.122Z,10.17
2019-02-17T17:32:45.712Z,10.13
2019-02-17T17:35:14.343Z,10.11
2019-02-17T17:37:43.138Z,10.08
2019-02-17T17:40:13.759Z,10.06
2019-02-17T17:42:42.264Z,10.04
2019-02-17T17:45:14.084Z,10.02
2019-02-17T17:47:42.601Z,9.99
2019-02-17T17:50:13.033Z,9.95
2019-02-17T17:52:41.487Z,9.94
2019-02-17T17:55:11.190Z,9.92
2019-02-17T17:57:39.708Z,9.90
2019-02-17T18:00:17.580Z,9.88
2019-02-17T18:02:46.262Z,9.90
2019-02-17T18:05:14.867Z,9.94
2019-02-17T18:07:43.405Z,9.93
2019-02-17T18:10:18.727Z,9.92
2019-02-17T18:12:47.559Z,9.92
2019-02-17T18:15:19.953Z,9.90
2019-02-17T18:17:54.355Z,9.91
2019-02-17T18:20:18.788Z,9.91
2019-02-17T18:22:47.259Z,9.87
2019-02-17T18:25:16.013Z,9.83
2019-02-17T18:27:44.427Z,9.80
2019-02-17T18:30:20.136Z,9.83
2019-02-17T18:32:48.744Z,9.80
2019-02-17T18:35:20.328Z,9.76
2019-02-17T18:37:47.417Z,9.73
2019-02-17T18:40:19.667Z,9.69
2019-02-17T18:42:48.129Z,9.65
2019-02-17T18:45:16.965Z,9.64
2019-02-17T18:47:45.670Z,9.62
2019-02-17T18:50:14.990Z,9.59
2019-02-17T18:52:43.843Z,9.56
2019-02-17T18:55:13.348Z,9.55
2019-02-17T18:57:49.565Z,9.53
2019-02-17T19:00:20.309Z,9.54
2019-02-17T19:02:48.840Z,9.50
2019-02-17T19:05:17.267Z,9.48
2019-02-17T19:07:46.020Z,9.46
2019-02-17T19:10:15.326Z,9.47
2019-02-17T19:12:43.762Z,9.45
2019-02-17T19:15:14.085Z,9.41
2019-02-17T19:17:42.728Z,9.38
2019-02-17T19:20:17.281Z,9.35
2019-02-17T19:22:45.738Z,9.33
2019-02-17T19:25:14.217Z,9.29
2019-02-17T19:27:42.731Z,9.28
2019-02-17T19:30:15.268Z,9.25
2019-02-17T19:32:43.657Z,9.22
2019-02-17T19:35:14.207Z,9.19
2019-02-17T19:37:42.725Z,9.17
2019-02-17T19:40:14.996Z,9.13
2019-02-17T19:42:43.431Z,9.14
2019-02-17T19:45:15.184Z,9.13
2019-02-17T19:47:43.724Z,9.11
2019-02-17T19:50:13.539Z,9.08
2019-02-17T19:52:42.118Z,9.03
2019-02-17T19:55:12.678Z,9.01
2019-02-17T19:57:41.403Z,8.97
2019-02-17T20:00:15.686Z,8.95
2019-02-17T20:02:45.838Z,8.92
2019-02-17T20:05:21.736Z,8.88
2019-02-17T20:07:52.750Z,8.87
2019-02-17T20:10:20.660Z,8.86
2019-02-17T20:12:50.049Z,8.85
2019-02-17T20:15:18.626Z,8.83
2019-02-17T20:17:47.026Z,8.81
2019-02-17T20:20:15.416Z,8.80
2019-02-17T20:22:43.801Z,8.79
2019-02-17T20:25:12.363Z,8.79
2019-02-17T20:27:40.715Z,8.77
2019-02-17T20:30:13.886Z,8.75
2019-02-17T20:32:42.438Z,8.73
2019-02-17T20:35:11.094Z,8.69
2019-02-17T20:37:39.825Z,8.69
2019-02-17T20:40:11.407Z,8.65
2019-02-17T20:42:39.956Z,8.63
2019-02-17T20:45:10.271Z,8.63
2019-02-17T20:47:38.641Z,8.61
2019-02-17T20:50:14.567Z,8.58
2019-02-17T20:52:43.049Z,8.54
2019-02-17T20:55:12.400Z,8.52
2019-02-17T20:57:40.922Z,8.51
2019-02-17T21:00:22.840Z,8.47
2019-02-17T21:02:51.534Z,8.46
2019-02-17T21:05:20.107Z,8.45
2019-02-17T21:07:48.887Z,8.42
2019-02-17T21:10:17.392Z,8.39
2019-02-17T21:12:45.882Z,8.41
2019-02-17T21:15:16.568Z,8.37
2019-02-17T21:17:45.064Z,8.35
2019-02-17T21:20:13.991Z,8.33
2019-02-17T21:22:42.445Z,8.31
2019-02-17T21:25:14.634Z,8.30
2019-02-17T21:27:43.036Z,8.27
2019-02-17T21:30:18.641Z,8.25
2019-02-17T21:32:47.578Z,8.23
2019-02-17T21:35:16.885Z,8.20
2019-02-17T21:37:45.356Z,8.16
2019-02-17T21:40:14.529Z,8.14
2019-02-17T21:42:43.085Z,8.13
2019-02-17T21:45:13.818Z,8.12
2019-02-17T21:47:42.172Z,8.11
2019-02-17T21:50:12.591Z,8.09
2019-02-17T21:52:42.094Z,8.09
2019-02-17T21:55:12.092Z,8.04
2019-02-17T21:57:41.023Z,8.02
2019-02-17T22:00:21.685Z,7.99
2019-02-17T22:02:50.140Z,8.00
2019-02-17T22:05:19.064Z,7.95
2019-02-17T22:07:47.774Z,7.93
2019-02-17T22:10:19.808Z,7.90
2019-02-17T22:12:50.893Z,7.86
2019-02-17T22:15:20.939Z,7.85
2019-02-17T22:17:49.505Z,7.82
2019-02-17T22:20:17.940Z,7.77
2019-02-17T22:22:46.418Z,7.76
2019-02-17T22:25:15.347Z,7.75
2019-02-17T22:27:43.793Z,7.75
2019-02-17T22:30:15.838Z,7.75
2019-02-17T22:32:44.357Z,7.75
2019-02-17T22:35:14.084Z,7.74
2019-02-17T22:37:42.569Z,7.75
2019-02-17T22:40:12.747Z,7.75
2019-02-17T22:42:41.326Z,7.72
2019-02-17T22:45:10.975Z,7.74
2019-02-17T22:47:39.476Z,7.73
2019-02-17T22:50:14.983Z,7.70
2019-02-17T22:52:44.593Z,7.69
2019-02-17T22:55:14.083Z,7.66
2019-02-17T22:57:42.607Z,7.66
2019-02-17T23:00:20.031Z,7.64
2019-02-17T23:02:48.467Z,7.61
2019-02-17T23:05:17.188Z,7.58
2019-02-17T23:07:45.569Z,7.57
2019-02-17T23:10:14.107Z,7.56
2019-02-17T23:12:42.845Z,7.56
2019-02-17T23:15:11.528Z,7.54
2019-02-17T23:17:40.230Z,7.50
2019-02-17T23:20:08.826Z,7.49
2019-02-17T23:22:37.531Z,7.46
2019-02-17T23:25:08.447Z,7.39
2019-02-17T23:27:36.893Z,7.36
2019-02-17T23:30:07.414Z,7.34
2019-02-17T23:32:36.139Z,7.35
2019-02-17T23:35:05.223Z,7.34
2019-02-17T23:37:33.668Z,7.35
2019-02-17T23:40:02.126Z,7.33
2019-02-17T23:42:30.846Z,7.33
2019-02-17T23:44:59.615Z,7.33
2019-02-17T23:47:28.223Z,7.30
2019-02-17T23:49:56.625Z,7.29
2019-02-17T23:52:25.245Z,7.26
2019-02-17T23:54:53.917Z,7.22
2019-02-17T23:57:22.371Z,7.24
2019-02-17T23:59:51.066Z,7.25
